sensor_id;sensor_type;location;lat;lon;timestamp;pressure;altitude;pressure_sealevel;temperature;humidity
19890;BME280;10107;51.198;6.824;2024-03-17T00:03:12;65885.16;;;4.54;100.00
19890;BME280;10107;51.198;6.824;2024-03-17T00:07:14;65910.88;;;4.51;100.00
19890;BME280;10107;51.198;6.824;2024-03-17T00:11:15;65918.03;;;4.46;100.00
19890;BME280;10107;51.198;6.824;2024-03-17T00:15:17;65930.13;;;4.43;100.00
19890;BME280;10107;51.198;6.824;2024-03-17T00:19:20;65916.19;;;4.40;100.00
19890;BME280;10107;51.198;6.824;2024-03-17T00:23:22;65921.91;;;4.36;100.00
19890;BME280;10107;51.198;6.824;2024-03-17T00:27:24;65881.94;;;4.33;100.00
19890;BME280;10107;51.198;6.824;2024-03-17T00:31:26;65853.88;;;4.33;100.00
19890;BME280;10107;51.198;6.824;2024-03-17T00:35:29;65858.16;;;4.30;100.00
19890;BME280;10107;51.198;6.824;2024-03-17T00:39:31;65885.03;;;4.29;100.00
19890;BME280;10107;51.198;6.824;2024-03-17T00:43:33;65845.13;;;4.30;100.00
19890;BME280;10107;51.198;6.824;2024-03-17T00:47:35;65888.06;;;4.36;100.00
19890;BME280;10107;51.198;6.824;2024-03-17T00:51:38;65874.50;;;4.40;100.00
19890;BME280;10107;51.198;6.824;2024-03-17T00:55:40;65892.50;;;4.42;100.00
19890;BME280;10107;51.198;6.824;2024-03-17T00:59:42;65891.06;;;4.43;100.00
19890;BME280;10107;51.198;6.824;2024-03-17T01:03:44;65888.72;;;4.41;100.00
19890;BME280;10107;51.198;6.824;2024-03-17T01:07:47;65903.41;;;4.38;100.00
19890;BME280;10107;51.198;6.824;2024-03-17T01:11:50;65875.03;;;4.36;100.00
19890;BME280;10107;51.198;6.824;2024-03-17T01:15:52;65892.69;;;4.35;100.00
19890;BME280;10107;51.198;6.824;2024-03-17T01:19:54;65869.22;;;4.35;100.00
19890;BME280;10107;51.198;6.824;2024-03-17T01:23:57;65879.66;;;4.35;100.00
19890;BME280;10107;51.198;6.824;2024-03-17T01:27:59;65872.09;;;4.33;100.00
19890;BME280;10107;51.198;6.824;2024-03-17T01:32:01;65884.78;;;4.31;100.00
19890;BME280;10107;51.198;6.824;2024-03-17T01:36:03;65890.00;;;4.31;100.00
19890;BME280;10107;51.198;6.824;2024-03-17T01:40:07;65889.41;;;4.30;100.00
19890;BME280;10107;51.198;6.824;2024-03-17T01:44:22;65878.66;;;4.28;100.00
19890;BME280;10107;51.198;6.824;2024-03-17T01:48:23;65879.50;;;4.26;100.00
19890;BME280;10107;51.198;6.824;2024-03-17T01:52:25;65861.53;;;4.24;100.00
19890;BME280;10107;51.198;6.824;2024-03-17T01:56:28;65905.72;;;4.20;100.00
19890;BME280;10107;51.198;6.824;2024-03-17T02:00:30;65868.25;;;4.12;100.00
19890;BME280;10107;51.198;6.824;2024-03-17T02:04:33;65853.06;;;4.03;100.00
19890;BME280;10107;51.198;6.824;2024-03-17T02:08:46;65898.00;;;3.92;100.00
19890;BME280;10107;51.198;6.824;2024-03-17T02:12:50;65856.88;;;3.88;100.00
19890;BME280;10107;51.198;6.824;2024-03-17T02:16:51;65871.22;;;3.83;100.00
19890;BME280;10107;51.198;6.824;2024-03-17T02:20:53;65854.34;;;3.77;100.00
19890;BME280;10107;51.198;6.824;2024-03-17T02:25:00;65827.69;;;3.72;100.00
19890;BME280;10107;51.198;6.824;2024-03-17T02:29:02;65870.66;;;3.66;100.00
19890;BME280;10107;51.198;6.824;2024-03-17T02:33:04;65825.75;;;3.61;100.00
19890;BME280;10107;51.198;6.824;2024-03-17T02:37:06;65802.00;;;3.59;100.00
19890;BME280;10107;51.198;6.824;2024-03-17T02:41:09;65850.16;;;3.53;100.00
19890;BME280;10107;51.198;6.824;2024-03-17T02:45:10;65794.28;;;3.47;100.00
19890;BME280;10107;51.198;6.824;2024-03-17T02:49:12;65811.81;;;3.42;100.00
19890;BME280;10107;51.198;6.824;2024-03-17T02:53:18;65806.28;;;3.40;100.00
19890;BME280;10107;51.198;6.824;2024-03-17T02:57:22;65772.75;;;3.37;100.00
19890;BME280;10107;51.198;6.824;2024-03-17T03:01:25;65815.19;;;3.36;100.00
19890;BME280;10107;51.198;6.824;2024-03-17T03:05:27;65801.09;;;3.40;100.00
19890;BME280;10107;51.198;6.824;2024-03-17T03:09:28;65847.31;;;3.39;100.00
19890;BME280;10107;51.198;6.824;2024-03-17T03:13:34;65785.50;;;3.40;100.00
19890;BME280;10107;51.198;6.824;2024-03-17T03:17:35;65809.81;;;3.43;100.00
19890;BME280;10107;51.198;6.824;2024-03-17T03:21:37;65801.16;;;3.44;100.00
19890;BME280;10107;51.198;6.824;2024-03-17T03:25:39;65855.03;;;3.50;100.00
19890;BME280;10107;51.198;6.824;2024-03-17T03:29:42;65815.16;;;3.52;100.00
19890;BME280;10107;51.198;6.824;2024-03-17T03:33:43;65829.09;;;3.55;100.00
19890;BME280;10107;51.198;6.824;2024-03-17T03:37:45;65814.91;;;3.54;100.00
19890;BME280;10107;51.198;6.824;2024-03-17T03:41:47;65819.22;;;3.51;100.00
19890;BME280;10107;51.198;6.824;2024-03-17T03:45:50;65793.97;;;3.45;100.00
19890;BME280;10107;51.198;6.824;2024-03-17T03:49:51;65821.38;;;3.44;100.00
19890;BME280;10107;51.198;6.824;2024-03-17T03:53:53;65786.94;;;3.39;100.00
19890;BME280;10107;51.198;6.824;2024-03-17T03:57:55;65854.69;;;3.32;100.00
19890;BME280;10107;51.198;6.824;2024-03-17T04:01:58;65803.78;;;3.28;100.00
19890;BME280;10107;51.198;6.824;2024-03-17T04:06:02;65783.56;;;3.29;100.00
19890;BME280;10107;51.198;6.824;2024-03-17T04:10:05;65780.63;;;3.26;100.00
19890;BME280;10107;51.198;6.824;2024-03-17T04:14:07;65758.91;;;3.23;100.00
19890;BME280;10107;51.198;6.824;2024-03-17T04:18:10;65789.19;;;3.20;100.00
19890;BME280;10107;51.198;6.824;2024-03-17T04:22:13;65773.00;;;3.20;100.00
19890;BME280;10107;51.198;6.824;2024-03-17T04:26:15;65815.19;;;3.20;100.00
19890;BME280;10107;51.198;6.824;2024-03-17T04:30:17;65795.56;;;3.21;100.00
19890;BME280;10107;51.198;6.824;2024-03-17T04:34:20;65766.47;;;3.25;100.00
19890;BME280;10107;51.198;6.824;2024-03-17T04:38:22;65765.69;;;3.31;100.00
19890;BME280;10107;51.198;6.824;2024-03-17T04:42:24;65835.16;;;3.37;100.00
19890;BME280;10107;51.198;6.824;2024-03-17T04:46:26;65809.81;;;3.43;100.00
19890;BME280;10107;51.198;6.824;2024-03-17T04:50:29;65796.06;;;3.49;100.00
19890;BME280;10107;51.198;6.824;2024-03-17T04:54:33;65792.44;;;3.57;100.00
19890;BME280;10107;51.198;6.824;2024-03-17T04:58:35;65818.53;;;3.62;100.00
19890;BME280;10107;51.198;6.824;2024-03-17T05:02:36;65814.81;;;3.65;100.00
19890;BME280;10107;51.198;6.824;2024-03-17T05:06:39;65808.53;;;3.69;100.00
19890;BME280;10107;51.198;6.824;2024-03-17T05:10:42;65865.00;;;3.75;100.00
19890;BME280;10107;51.198;6.824;2024-03-17T05:14:43;65791.66;;;3.79;100.00
19890;BME280;10107;51.198;6.824;2024-03-17T05:18:45;65845.72;;;3.79;100.00
19890;BME280;10107;51.198;6.824;2024-03-17T05:22:48;65826.66;;;3.80;100.00
19890;BME280;10107;51.198;6.824;2024-03-17T05:26:50;65835.31;;;3.79;100.00
19890;BME280;10107;51.198;6.824;2024-03-17T05:30:52;65847.88;;;3.71;100.00
19890;BME280;10107;51.198;6.824;2024-03-17T05:34:54;65821.22;;;3.66;100.00
19890;BME280;10107;51.198;6.824;2024-03-17T05:38:58;65832.72;;;3.63;100.00
19890;BME280;10107;51.198;6.824;2024-03-17T05:43:00;65823.41;;;3.59;100.00
19890;BME280;10107;51.198;6.824;2024-03-17T05:47:01;65835.22;;;3.58;100.00
19890;BME280;10107;51.198;6.824;2024-03-17T05:51:04;65820.78;;;3.59;100.00
19890;BME280;10107;51.198;6.824;2024-03-17T05:55:07;65828.66;;;3.64;100.00
19890;BME280;10107;51.198;6.824;2024-03-17T05:59:11;65815.84;;;3.73;100.00
19890;BME280;10107;51.198;6.824;2024-03-17T06:03:13;65850.22;;;3.89;100.00
19890;BME280;10107;51.198;6.824;2024-03-17T06:07:15;65860.88;;;4.03;100.00
19890;BME280;10107;51.198;6.824;2024-03-17T06:11:19;65851.63;;;4.20;100.00
19890;BME280;10107;51.198;6.824;2024-03-17T06:15:20;65863.97;;;4.31;100.00
19890;BME280;10107;51.198;6.824;2024-03-17T06:19:23;65904.75;;;4.48;100.00
19890;BME280;10107;51.198;6.824;2024-03-17T06:23:25;65905.84;;;4.61;100.00
19890;BME280;10107;51.198;6.824;2024-03-17T06:27:29;65925.13;;;4.73;100.00
19890;BME280;10107;51.198;6.824;2024-03-17T06:31:31;65932.59;;;4.86;100.00
19890;BME280;10107;51.198;6.824;2024-03-17T06:35:33;65936.41;;;5.08;100.00
19890;BME280;10107;51.198;6.824;2024-03-17T06:39:35;65958.22;;;5.31;100.00
19890;BME280;10107;51.198;6.824;2024-03-17T06:43:38;65973.97;;;5.56;100.00
19890;BME280;10107;51.198;6.824;2024-03-17T06:47:40;66020.25;;;5.88;100.00
19890;BME280;10107;51.198;6.824;2024-03-17T06:51:43;66038.25;;;6.06;100.00
19890;BME280;10107;51.198;6.824;2024-03-17T06:55:52;66048.66;;;6.22;100.00
19890;BME280;10107;51.198;6.824;2024-03-17T06:59:55;66055.50;;;6.34;100.00
19890;BME280;10107;51.198;6.824;2024-03-17T07:03:58;66062.34;;;6.68;100.00
19890;BME280;10107;51.198;6.824;2024-03-17T07:08:00;66120.84;;;6.96;100.00
19890;BME280;10107;51.198;6.824;2024-03-17T07:12:02;66144.97;;;7.17;100.00
19890;BME280;10107;51.198;6.824;2024-03-17T07:16:06;66122.94;;;7.00;100.00
19890;BME280;10107;51.198;6.824;2024-03-17T07:20:07;66068.88;;;6.78;100.00
19890;BME280;10107;51.198;6.824;2024-03-17T07:24:13;66107.13;;;6.70;100.00
19890;BME280;10107;51.198;6.824;2024-03-17T07:28:14;66090.31;;;6.74;100.00
19890;BME280;10107;51.198;6.824;2024-03-17T07:32:17;66099.34;;;6.75;100.00
19890;BME280;10107;51.198;6.824;2024-03-17T07:36:19;66142.88;;;7.33;100.00
19890;BME280;10107;51.198;6.824;2024-03-17T07:40:22;66176.13;;;7.85;100.00
19890;BME280;10107;51.198;6.824;2024-03-17T07:44:24;66717.13;;;13.82;100.00
19890;BME280;10107;51.198;6.824;2024-03-17T07:48:27;67335.44;;;20.10;58.11
19890;BME280;10107;51.198;6.824;2024-03-17T07:52:29;67757.03;;;23.76;39.43
19890;BME280;10107;51.198;6.824;2024-03-17T07:56:30;67974.72;;;24.99;35.07
19890;BME280;10107;51.198;6.824;2024-03-17T08:00:32;67957.66;;;23.73;35.60
19890;BME280;10107;51.198;6.824;2024-03-17T08:04:35;67346.22;;;18.69;45.77
19890;BME280;10107;51.198;6.824;2024-03-17T08:08:39;67197.00;;;18.83;49.75
19890;BME280;10107;51.198;6.824;2024-03-17T08:12:41;67766.50;;;22.80;39.85
19890;BME280;10107;51.198;6.824;2024-03-17T08:16:43;67770.72;;;22.33;38.46
19890;BME280;10107;51.198;6.824;2024-03-17T08:20:46;67381.84;;;18.82;44.88
19890;BME280;10107;51.198;6.824;2024-03-17T08:24:47;67027.00;;;15.75;56.04
19890;BME280;10107;51.198;6.824;2024-03-17T08:28:49;66778.84;;;14.91;63.28
19890;BME280;10107;51.198;6.824;2024-03-17T08:32:51;66909.06;;;16.82;58.17
19890;BME280;10107;51.198;6.824;2024-03-17T08:36:54;67112.28;;;18.28;52.32
19890;BME280;10107;51.198;6.824;2024-03-17T08:40:58;67173.28;;;18.72;50.33
19890;BME280;10107;51.198;6.824;2024-03-17T08:45:04;67182.94;;;17.90;50.40
19890;BME280;10107;51.198;6.824;2024-03-17T08:49:06;67036.88;;;16.75;54.14
19890;BME280;10107;51.198;6.824;2024-03-17T08:53:09;66999.34;;;15.83;56.82
19890;BME280;10107;51.198;6.824;2024-03-17T08:57:10;66945.81;;;15.00;62.19
19890;BME280;10107;51.198;6.824;2024-03-17T09:01:14;66878.38;;;14.94;64.46
19890;BME280;10107;51.198;6.824;2024-03-17T09:05:17;66981.72;;;14.99;63.20
19890;BME280;10107;51.198;6.824;2024-03-17T09:09:20;66871.50;;;14.38;66.57
19890;BME280;10107;51.198;6.824;2024-03-17T09:13:22;66802.44;;;13.57;71.00
19890;BME280;10107;51.198;6.824;2024-03-17T09:17:25;66733.66;;;13.14;76.62
19890;BME280;10107;51.198;6.824;2024-03-17T09:21:26;66763.50;;;13.72;75.13
19890;BME280;10107;51.198;6.824;2024-03-17T09:25:29;66880.09;;;14.87;66.46
19890;BME280;10107;51.198;6.824;2024-03-17T09:29:31;66891.09;;;15.08;65.26
19890;BME280;10107;51.198;6.824;2024-03-17T09:33:34;66899.09;;;14.64;66.55
19890;BME280;10107;51.198;6.824;2024-03-17T09:37:36;66832.34;;;14.29;67.85
19890;BME280;10107;51.198;6.824;2024-03-17T09:41:39;66850.94;;;14.82;67.83
19890;BME280;10107;51.198;6.824;2024-03-17T09:45:41;66902.44;;;14.83;65.33
19890;BME280;10107;51.198;6.824;2024-03-17T09:49:42;66958.97;;;15.34;66.63
19890;BME280;10107;51.198;6.824;2024-03-17T09:53:44;66950.09;;;14.78;65.99
19890;BME280;10107;51.198;6.824;2024-03-17T09:57:47;66860.63;;;14.35;68.75
19890;BME280;10107;51.198;6.824;2024-03-17T10:01:50;66876.59;;;14.05;69.10
19890;BME280;10107;51.198;6.824;2024-03-17T10:05:59;66814.78;;;13.93;69.85
19890;BME280;10107;51.198;6.824;2024-03-17T10:10:10;66833.44;;;14.16;69.75
19890;BME280;10107;51.198;6.824;2024-03-17T10:14:17;66831.97;;;14.17;69.27
19890;BME280;10107;51.198;6.824;2024-03-17T10:18:21;66800.28;;;13.83;69.84
19890;BME280;10107;51.198;6.824;2024-03-17T10:22:23;66827.25;;;13.74;73.29
19890;BME280;10107;51.198;6.824;2024-03-17T10:26:25;66793.69;;;13.63;73.94
19890;BME280;10107;51.198;6.824;2024-03-17T10:30:28;66818.72;;;14.13;73.62
19890;BME280;10107;51.198;6.824;2024-03-17T10:34:31;66836.31;;;14.53;70.26
19890;BME280;10107;51.198;6.824;2024-03-17T10:38:36;66967.06;;;15.62;67.08
19890;BME280;10107;51.198;6.824;2024-03-17T10:42:38;67019.34;;;16.44;60.72
19890;BME280;10107;51.198;6.824;2024-03-17T10:46:42;67086.69;;;16.56;60.74
19890;BME280;10107;51.198;6.824;2024-03-17T10:50:44;67027.44;;;16.00;61.51
19890;BME280;10107;51.198;6.824;2024-03-17T10:54:50;66971.34;;;15.84;63.58
19890;BME280;10107;51.198;6.824;2024-03-17T10:58:55;66994.56;;;15.74;63.19
19890;BME280;10107;51.198;6.824;2024-03-17T11:02:59;66945.19;;;14.95;64.75
19890;BME280;10107;51.198;6.824;2024-03-17T11:07:01;66921.00;;;14.88;66.53
19890;BME280;10107;51.198;6.824;2024-03-17T11:11:04;66911.03;;;14.93;67.73
19890;BME280;10107;51.198;6.824;2024-03-17T11:20:10;67104.75;;;16.65;62.04
19890;BME280;10107;51.198;6.824;2024-03-17T11:24:19;67162.13;;;17.58;57.38
19890;BME280;10107;51.198;6.824;2024-03-17T11:28:46;67286.97;;;18.55;52.61
19890;BME280;10107;51.198;6.824;2024-03-17T11:32:48;67270.31;;;18.27;52.62
19890;BME280;10107;51.198;6.824;2024-03-17T11:36:51;67297.66;;;18.64;51.38
19890;BME280;10107;51.198;6.824;2024-03-17T11:45:34;67521.63;;;20.48;47.51
19890;BME280;10107;51.198;6.824;2024-03-17T11:49:37;67487.69;;;20.01;47.10
19890;BME280;10107;51.198;6.824;2024-03-17T11:53:40;67403.91;;;19.37;49.28
19890;BME280;10107;51.198;6.824;2024-03-17T11:57:42;67386.41;;;19.34;50.07
19890;BME280;10107;51.198;6.824;2024-03-17T12:01:46;67391.53;;;19.82;47.31
19890;BME280;10107;51.198;6.824;2024-03-17T12:05:48;67528.78;;;20.68;45.16
19890;BME280;10107;51.198;6.824;2024-03-17T12:09:53;67638.22;;;21.77;42.46
19890;BME280;10107;51.198;6.824;2024-03-17T12:13:56;67642.09;;;21.45;43.30
19890;BME280;10107;51.198;6.824;2024-03-17T12:17:57;67581.09;;;20.86;43.98
19890;BME280;10107;51.198;6.824;2024-03-17T12:22:04;67505.56;;;20.48;45.15
19890;BME280;10107;51.198;6.824;2024-03-17T12:26:16;67666.72;;;21.13;44.07
19890;BME280;10107;51.198;6.824;2024-03-17T12:30:17;67478.19;;;20.06;45.76
19890;BME280;10107;51.198;6.824;2024-03-17T12:34:21;67497.13;;;19.81;48.25
19890;BME280;10107;51.198;6.824;2024-03-17T12:38:22;67441.31;;;19.56;48.67
19890;BME280;10107;51.198;6.824;2024-03-17T12:42:26;67419.00;;;19.21;49.10
19890;BME280;10107;51.198;6.824;2024-03-17T12:46:28;67340.00;;;18.62;51.12
19890;BME280;10107;51.198;6.824;2024-03-17T12:50:30;67264.66;;;18.15;52.09
19890;BME280;10107;51.198;6.824;2024-03-17T12:54:32;67236.06;;;17.67;53.29
19890;BME280;10107;51.198;6.824;2024-03-17T12:58:35;67172.84;;;17.01;53.64
19890;BME280;10107;51.198;6.824;2024-03-17T13:02:54;67161.09;;;17.14;56.19
19890;BME280;10107;51.198;6.824;2024-03-17T13:06:56;67185.94;;;17.21;53.46
19890;BME280;10107;51.198;6.824;2024-03-17T13:10:58;67194.16;;;17.15;54.89
19890;BME280;10107;51.198;6.824;2024-03-17T13:15:01;67170.75;;;16.92;53.22
19890;BME280;10107;51.198;6.824;2024-03-17T13:19:03;67102.34;;;16.58;53.28
19890;BME280;10107;51.198;6.824;2024-03-17T13:23:05;67110.81;;;16.40;56.96
19890;BME280;10107;51.198;6.824;2024-03-17T13:27:06;67059.66;;;16.17;58.01
19890;BME280;10107;51.198;6.824;2024-03-17T13:31:10;67102.41;;;16.15;58.94
19890;BME280;10107;51.198;6.824;2024-03-17T13:35:15;67049.53;;;15.99;58.12
19890;BME280;10107;51.198;6.824;2024-03-17T13:39:17;67072.72;;;15.80;59.38
19890;BME280;10107;51.198;6.824;2024-03-17T13:43:21;67015.69;;;15.60;60.47
19890;BME280;10107;51.198;6.824;2024-03-17T13:47:23;67015.34;;;15.49;61.25
19890;BME280;10107;51.198;6.824;2024-03-17T13:51:25;66972.22;;;15.34;61.16
19890;BME280;10107;51.198;6.824;2024-03-17T13:55:27;66960.78;;;15.40;61.40
19890;BME280;10107;51.198;6.824;2024-03-17T13:59:29;66955.38;;;15.27;59.31
19890;BME280;10107;51.198;6.824;2024-03-17T14:03:32;66944.97;;;15.06;60.84
19890;BME280;10107;51.198;6.824;2024-03-17T14:07:34;66965.69;;;15.24;63.80
19890;BME280;10107;51.198;6.824;2024-03-17T14:11:36;66939.91;;;15.48;63.00
19890;BME280;10107;51.198;6.824;2024-03-17T14:15:37;66945.75;;;15.39;60.58
19890;BME280;10107;51.198;6.824;2024-03-17T14:19:40;66988.25;;;15.53;62.25
19890;BME280;10107;51.198;6.824;2024-03-17T14:23:42;66924.31;;;15.55;63.80
19890;BME280;10107;51.198;6.824;2024-03-17T14:27:46;66950.81;;;15.50;64.89
19890;BME280;10107;51.198;6.824;2024-03-17T14:31:48;66954.56;;;15.33;65.84
19890;BME280;10107;51.198;6.824;2024-03-17T14:35:56;66965.41;;;15.26;67.01
19890;BME280;10107;51.198;6.824;2024-03-17T14:39:58;67001.34;;;15.25;67.80
19890;BME280;10107;51.198;6.824;2024-03-17T14:44:00;66994.03;;;15.35;67.79
19890;BME280;10107;51.198;6.824;2024-03-17T14:48:02;66933.28;;;15.19;67.51
19890;BME280;10107;51.198;6.824;2024-03-17T14:52:05;66905.78;;;15.02;69.15
19890;BME280;10107;51.198;6.824;2024-03-17T14:56:07;66891.69;;;15.13;68.91
19890;BME280;10107;51.198;6.824;2024-03-17T15:00:11;66925.28;;;15.14;68.55
19890;BME280;10107;51.198;6.824;2024-03-17T15:04:16;66961.50;;;15.16;69.11
19890;BME280;10107;51.198;6.824;2024-03-17T15:08:20;66986.19;;;15.53;69.36
19890;BME280;10107;51.198;6.824;2024-03-17T15:12:22;66966.09;;;15.45;67.40
19890;BME280;10107;51.198;6.824;2024-03-17T15:16:24;66965.47;;;15.35;69.07
19890;BME280;10107;51.198;6.824;2024-03-17T15:20:26;66966.34;;;15.34;69.71
19890;BME280;10107;51.198;6.824;2024-03-17T15:24:29;66972.19;;;15.30;69.94
19890;BME280;10107;51.198;6.824;2024-03-17T15:28:31;66922.91;;;15.12;69.28
19890;BME280;10107;51.198;6.824;2024-03-17T15:32:33;66952.59;;;15.03;69.71
19890;BME280;10107;51.198;6.824;2024-03-17T15:36:34;66890.97;;;14.84;70.00
19890;BME280;10107;51.198;6.824;2024-03-17T15:40:38;66900.94;;;14.79;69.61
19890;BME280;10107;51.198;6.824;2024-03-17T15:44:40;66890.63;;;14.77;70.80
19890;BME280;10107;51.198;6.824;2024-03-17T15:48:41;66886.13;;;14.62;71.58
19890;BME280;10107;51.198;6.824;2024-03-17T15:52:43;66894.63;;;14.58;72.81
19890;BME280;10107;51.198;6.824;2024-03-17T15:56:47;66886.34;;;14.55;73.46
19890;BME280;10107;51.198;6.824;2024-03-17T16:00:50;66847.47;;;14.49;73.82
19890;BME280;10107;51.198;6.824;2024-03-17T16:04:52;66890.13;;;14.52;73.55
19890;BME280;10107;51.198;6.824;2024-03-17T16:08:58;66879.88;;;14.54;74.23
19890;BME280;10107;51.198;6.824;2024-03-17T16:13:01;66839.81;;;14.47;82.13
19890;BME280;10107;51.198;6.824;2024-03-17T16:17:04;66864.91;;;14.57;77.21
19890;BME280;10107;51.198;6.824;2024-03-17T16:21:09;66862.78;;;14.53;81.90
19890;BME280;10107;51.198;6.824;2024-03-17T16:25:11;66855.31;;;14.35;75.16
19890;BME280;10107;51.198;6.824;2024-03-17T16:29:14;66839.00;;;14.14;76.63
19890;BME280;10107;51.198;6.824;2024-03-17T16:33:16;66828.56;;;13.89;77.43
19890;BME280;10107;51.198;6.824;2024-03-17T16:37:17;66797.97;;;13.85;79.10
19890;BME280;10107;51.198;6.824;2024-03-17T16:41:21;66830.31;;;13.91;96.91
19890;BME280;10107;51.198;6.824;2024-03-17T16:45:26;66819.22;;;13.99;89.53
19890;BME280;10107;51.198;6.824;2024-03-17T16:49:29;66819.19;;;13.95;88.34
19890;BME280;10107;51.198;6.824;2024-03-17T16:53:32;66817.97;;;13.89;89.86
19890;BME280;10107;51.198;6.824;2024-03-17T16:57:34;66799.88;;;13.66;84.76
19890;BME280;10107;51.198;6.824;2024-03-17T17:01:37;66806.47;;;13.47;85.96
19890;BME280;10107;51.198;6.824;2024-03-17T17:05:41;66749.09;;;13.32;87.04
19890;BME280;10107;51.198;6.824;2024-03-17T17:09:43;66734.88;;;13.19;87.77
19890;BME280;10107;51.198;6.824;2024-03-17T17:13:45;66748.34;;;13.13;89.38
19890;BME280;10107;51.198;6.824;2024-03-17T17:17:48;66718.63;;;13.03;90.33
19890;BME280;10107;51.198;6.824;2024-03-17T17:21:51;66697.41;;;12.89;91.62
19890;BME280;10107;51.198;6.824;2024-03-17T17:25:53;66707.28;;;12.79;91.72
19890;BME280;10107;51.198;6.824;2024-03-17T17:29:56;66676.44;;;12.73;92.36
19890;BME280;10107;51.198;6.824;2024-03-17T17:33:59;66666.38;;;12.64;93.22
19890;BME280;10107;51.198;6.824;2024-03-17T17:38:01;66656.94;;;12.56;92.84
19890;BME280;10107;51.198;6.824;2024-03-17T17:42:03;66691.50;;;12.50;94.13
19890;BME280;10107;51.198;6.824;2024-03-17T17:46:05;66655.97;;;12.44;94.36
19890;BME280;10107;51.198;6.824;2024-03-17T17:50:09;66657.66;;;12.36;95.27
19890;BME280;10107;51.198;6.824;2024-03-17T17:54:12;66626.22;;;12.29;96.28
19890;BME280;10107;51.198;6.824;2024-03-17T17:58:15;66622.09;;;12.26;96.98
19890;BME280;10107;51.198;6.824;2024-03-17T18:02:17;66606.81;;;12.22;97.54
19890;BME280;10107;51.198;6.824;2024-03-17T18:06:20;66620.56;;;12.18;98.18
19890;BME280;10107;51.198;6.824;2024-03-17T18:10:21;66656.31;;;12.17;98.76
19890;BME280;10107;51.198;6.824;2024-03-17T18:14:23;66607.06;;;12.15;99.35
19890;BME280;10107;51.198;6.824;2024-03-17T18:18:27;66640.44;;;12.12;99.03
19890;BME280;10107;51.198;6.824;2024-03-17T18:22:30;66615.78;;;12.09;99.24
19890;BME280;10107;51.198;6.824;2024-03-17T18:26:32;66621.63;;;12.05;99.28
19890;BME280;10107;51.198;6.824;2024-03-17T18:30:36;66628.03;;;12.01;99.49
19890;BME280;10107;51.198;6.824;2024-03-17T18:34:37;66628.59;;;11.97;98.87
19890;BME280;10107;51.198;6.824;2024-03-17T18:38:41;66609.81;;;11.95;99.52
19890;BME280;10107;51.198;6.824;2024-03-17T18:42:46;66617.41;;;11.92;98.76
19890;BME280;10107;51.198;6.824;2024-03-17T18:46:50;66590.44;;;11.92;98.26
19890;BME280;10107;51.198;6.824;2024-03-17T18:50:56;66595.41;;;11.89;97.63
19890;BME280;10107;51.198;6.824;2024-03-17T18:55:00;66628.47;;;11.88;97.17
19890;BME280;10107;51.198;6.824;2024-03-17T18:59:02;66577.53;;;11.89;98.80
19890;BME280;10107;51.198;6.824;2024-03-17T19:03:06;66565.44;;;11.81;100.00
19890;BME280;10107;51.198;6.824;2024-03-17T19:07:08;66568.47;;;11.59;100.00
19890;BME280;10107;51.198;6.824;2024-03-17T19:11:12;66524.97;;;11.39;100.00
19890;BME280;10107;51.198;6.824;2024-03-17T19:15:15;66532.41;;;11.23;100.00
19890;BME280;10107;51.198;6.824;2024-03-17T19:19:16;66512.97;;;11.10;100.00
19890;BME280;10107;51.198;6.824;2024-03-17T19:23:21;66513.81;;;11.04;100.00
19890;BME280;10107;51.198;6.824;2024-03-17T19:27:25;66495.34;;;11.00;100.00
19890;BME280;10107;51.198;6.824;2024-03-17T19:31:28;66485.06;;;10.98;100.00
19890;BME280;10107;51.198;6.824;2024-03-17T19:35:30;66473.94;;;10.97;100.00
19890;BME280;10107;51.198;6.824;2024-03-17T19:39:32;66502.31;;;10.97;100.00
19890;BME280;10107;51.198;6.824;2024-03-17T19:43:36;66481.53;;;10.95;100.00
19890;BME280;10107;51.198;6.824;2024-03-17T19:47:41;66479.44;;;10.90;100.00
19890;BME280;10107;51.198;6.824;2024-03-17T19:51:43;66506.63;;;10.89;100.00
19890;BME280;10107;51.198;6.824;2024-03-17T19:55:46;66470.06;;;10.87;100.00
19890;BME280;10107;51.198;6.824;2024-03-17T19:59:50;66472.38;;;10.84;100.00
19890;BME280;10107;51.198;6.824;2024-03-17T20:03:52;66461.50;;;10.82;100.00
19890;BME280;10107;51.198;6.824;2024-03-17T20:07:54;66464.75;;;10.82;100.00
19890;BME280;10107;51.198;6.824;2024-03-17T20:11:56;66470.59;;;10.83;100.00
19890;BME280;10107;51.198;6.824;2024-03-17T20:16:00;66521.50;;;10.86;100.00
19890;BME280;10107;51.198;6.824;2024-03-17T20:20:02;66470.06;;;10.87;100.00
19890;BME280;10107;51.198;6.824;2024-03-17T20:24:09;66457.47;;;10.87;100.00
19890;BME280;10107;51.198;6.824;2024-03-17T20:28:13;66504.22;;;10.82;100.00
19890;BME280;10107;51.198;6.824;2024-03-17T20:32:17;66451.81;;;10.76;100.00
19890;BME280;10107;51.198;6.824;2024-03-17T20:36:19;66516.69;;;10.73;100.00
19890;BME280;10107;51.198;6.824;2024-03-17T20:40:21;66469.88;;;10.68;100.00
19890;BME280;10107;51.198;6.824;2024-03-17T20:44:23;66462.84;;;10.67;100.00
19890;BME280;10107;51.198;6.824;2024-03-17T20:48:27;66450.53;;;10.65;100.00
19890;BME280;10107;51.198;6.824;2024-03-17T20:52:28;66460.13;;;10.58;100.00
19890;BME280;10107;51.198;6.824;2024-03-17T20:56:30;66476.72;;;10.52;100.00
19890;BME280;10107;51.198;6.824;2024-03-17T21:00:32;66412.63;;;10.44;100.00
19890;BME280;10107;51.198;6.824;2024-03-17T21:04:36;66388.88;;;10.35;100.00
19890;BME280;10107;51.198;6.824;2024-03-17T21:08:38;66395.19;;;10.26;100.00
19890;BME280;10107;51.198;6.824;2024-03-17T21:12:40;66344.28;;;10.19;100.00
19890;BME280;10107;51.198;6.824;2024-03-17T21:16:42;66391.84;;;10.12;100.00
19890;BME280;10107;51.198;6.824;2024-03-17T21:20:45;66379.78;;;10.04;100.00
19890;BME280;10107;51.198;6.824;2024-03-17T21:24:47;66384.09;;;9.96;100.00
19890;BME280;10107;51.198;6.824;2024-03-17T21:28:49;66355.09;;;9.87;100.00
19890;BME280;10107;51.198;6.824;2024-03-17T21:32:51;66350.91;;;9.79;100.00
19890;BME280;10107;51.198;6.824;2024-03-17T21:36:54;66353.22;;;9.76;100.00